• Join FlightAware (Why Join?)
  • Login
  • US Flag 
07:43AM EDT


 

Airport Tracker/Info


-or-


 

Live Flight TrackerFlight Track Log ✈ JZA8106 ✈ 08-Apr-2013 ✈ CYYC - KIAH

Flight Track Log - Related Links

Times and Time Zones

All times are in EDT time to prevent confusion due to time zone crossing. See the JZA8106 flight status page for this flight to view local times or setup timezone preferences in your user account.

Time Position Orientation Groundspeed Altitude Reporting Facility
EDT Latitude Longitude Course Direction KTS MPH feet Rate Location/Type
09:01PM 51.0833 -114.0333 197° South 80 92 3,600  Level Edmonton Center
09:02PM 51.0500 -114.0500 197° South 160 184 5,200 1,920 Climbing Edmonton Center
09:03PM 51.0000 -114.0500 180° South 200 230 7,500 2,100 Climbing Edmonton Center
09:04PM 50.9333 -114.0333 171° South 240 276 9,500 2,100 Climbing Edmonton Center
09:05PM 50.8500 -114.0167 173° South 290 334 11,800 1,860 Climbing Edmonton Center
09:06PM 50.7667 -113.9667 159° South 340 391 13,300 1,500 Climbing Edmonton Center
09:07PM 50.6500 -113.9167 165° South 390 449 14,800 1,860 Climbing Edmonton Center
09:08PM 50.5500 -113.8667 162° South 400 460 17,100 2,040 Climbing Edmonton Center
09:09PM 50.4333 -113.8500 175° South 400 460 18,900 1,800 Climbing Edmonton Center
09:10PM 50.3167 -113.8000 165° South 410 472 20,700 1,620 Climbing Edmonton Center
09:11PM 50.2167 -113.7500 162° South 420 483 22,200 1,380 Climbing Edmonton Center
09:12PM 50.1000 -113.7000 165° South 440 506 23,500 1,260 Climbing Edmonton Center
09:13PM 49.9833 -113.6000 151° Southeast 450 518 24,800 1,200 Climbing Edmonton Center
09:14PM 49.9000 -113.4833 138° Southeast 460 529 26,000 1,440 Climbing Edmonton Center
09:15PM 49.7833 -113.3167 137° Southeast 470 541 27,700 1,740 Climbing Edmonton Center
09:16PM 49.7000 -113.2000 138° Southeast 460 529 29,500 1,620 Climbing Edmonton Center
09:17PM 49.6000 -113.0500 136° Southeast 450 518 31,000 1,560 Climbing Edmonton Center
09:18PM 49.5167 -112.9333 138° Southeast 450 518 32,700 1,500 Climbing Edmonton Center
09:19PM 49.4000 -112.8167 147° Southeast 440 506 34,000 900 Climbing Edmonton Center
09:20PM 49.3333 -112.7000 131° Southeast 450 518 34,600 660 Climbing Edmonton Center
09:21PM 49.2333 -112.5833 143° Southeast 450 518 35,400 780 Climbing Edmonton Center
09:23PM 49.0281 -112.2467 133° Southeast 456 525 37,300 720 Climbing Salt Lake Center
09:24PM 48.9306 -112.1194 139° Southeast 461 531 38,000 540 Climbing Salt Lake Center
09:25PM 48.8333 -111.9936 140° Southeast 461 531 38,500 480 Climbing Salt Lake Center
09:26PM 48.7369 -111.8678 139° Southeast 460 529 39,000 240 Climbing Salt Lake Center
09:27PM 48.6369 -111.7408 140° Southeast 467 537 39,000  Level Salt Lake Center
09:28PM 48.5353 -111.6103 140° Southeast 476 548 39,000  Level Salt Lake Center
09:29PM 48.4322 -111.4808 140° Southeast 482 555 39,000 -60 Level Salt Lake Center
09:30PM 48.3306 -111.3508 140° Southeast 480 552 38,900  Descending Salt Lake Center
09:32PM 48.2409 -111.1822 141° Southeast  Level FlightAware Approximate
09:32PM 48.1067 -111.0697 141° Southeast 476 548 39,000  Level Salt Lake Center
09:33PM 48.0047 -110.9436 140° Southeast 474 545 39,000  Level Salt Lake Center
09:34PM 47.9036 -110.8186 140° Southeast 471 542 39,000  Level Salt Lake Center
09:35PM 47.8014 -110.6931 140° Southeast 471 542 39,000  Level Salt Lake Center
09:36PM 47.7000 -110.5692 141° Southeast 471 542 39,000  Level Salt Lake Center
09:38PM 47.5997 -110.4447 140° Southeast 469 540 39,000  Level Salt Lake Center
09:39PM 47.4981 -110.3231 141° Southeast 468 539 39,000  Level Salt Lake Center
09:40PM 47.3975 -110.2031 141° Southeast 466 536 39,000  Level Salt Lake Center
09:41PM 47.2969 -110.0833 141° Southeast 464 534 39,000  Level Salt Lake Center
09:42PM 47.1997 -109.9608 139° Southeast 463 533 39,000  Level Salt Lake Center
09:43PM 47.1000 -109.8431 141° Southeast 460 529 39,000  Level Salt Lake Center
09:44PM 46.9794 -109.7022 141° Southeast 461 531 39,000  Level Salt Lake Center
09:45PM 46.8797 -109.5844 141° Southeast 461 531 39,000  Level Salt Lake Center
09:46PM 46.7803 -109.4669 141° Southeast 461 531 39,000  Level Salt Lake Center
09:47PM 46.6772 -109.3500 142° Southeast 460 529 39,000  Level Salt Lake Center
09:48PM 46.5806 -109.2386 142° Southeast 460 529 39,000  Level Salt Lake Center
09:49PM 46.4681 -109.1106 142° Southeast 459 528 39,000  Level Salt Lake Center
09:50PM 46.3717 -108.9994 141° Southeast 462 532 39,000  Level Salt Lake Center
09:51PM 46.2594 -108.8725 142° Southeast 458 527 39,000  Level Salt Lake Center
09:52PM 46.1628 -108.7633 142° Southeast 459 528 39,000  Level Salt Lake Center
09:53PM 46.0661 -108.6547 142° Southeast 459 528 39,000  Level Salt Lake Center
09:54PM 45.9531 -108.5283 142° Southeast 461 531 39,000  Level Salt Lake Center
09:55PM 45.8564 -108.4203 142° Southeast 459 528 39,000  Level Salt Lake Center
09:56PM 45.7436 -108.2964 143° Southeast 457 526 39,000  Level Salt Lake Center
09:57PM 45.6467 -108.1886 142° Southeast 460 529 39,000  Level Salt Lake Center
09:58PM 45.5500 -108.0833 143° Southeast 457 526 39,000  Level Salt Lake Center
09:59PM 45.4367 -107.9592 142° Southeast 456 525 39,000  Level Salt Lake Center
10:00PM 45.3411 -107.8533 142° Southeast 453 521 39,000  Level Salt Lake Center
10:01PM 45.2272 -107.7303 143° Southeast 459 528 39,000  Level Salt Lake Center
10:02PM 45.1306 -107.6258 143° Southeast 456 525 39,000  Level Salt Lake Center
10:03PM 45.0342 -107.5211 142° Southeast 452 520 39,000  Level Salt Lake Center
10:04PM 44.9200 -107.4003 143° Southeast 454 522 39,000  Level Salt Lake Center
10:05PM 44.8225 -107.2953 143° Southeast 457 526 39,000  Level Salt Lake Center
10:06PM 44.7261 -107.1933 143° Southeast 451 519 39,000  Level Salt Lake Center
10:07PM 44.6128 -107.0719 143° Southeast 455 524 39,000  Level Salt Lake Center
10:08PM 44.5161 -106.9714 143° Southeast 452 520 39,000  Level Salt Lake Center
10:09PM 44.4186 -106.8714 144° Southeast 452 520 39,000  Level Salt Lake Center
10:10PM 44.3064 -106.7531 143° Southeast 452 520 39,000  Level Salt Lake Center
10:11PM 44.2089 -106.6539 144° Southeast 452 520 39,000  Level Salt Lake Center
10:12PM 44.0967 -106.5378 143° Southeast 449 517 39,000  Level Salt Lake Center
10:13PM 44.0003 -106.4383 143° Southeast 449 517 39,000  Level Salt Lake Center
10:14PM 43.8944 -106.3328 144° Southeast 446 513 39,000  Level Salt Lake Center
10:15PM 43.8942 -106.3325 144° Southeast 446 513 39,000  Level Denver Center
10:16PM 43.7647 -106.2075 145° Southeast 444 511 39,000  Level Denver Center
10:17PM 43.6528 -106.0964 144° Southeast 444 511 39,000  Level Denver Center
10:18PM 43.5569 -106.0022 145° Southeast 443 510 39,000  Level Denver Center
10:19PM 43.4589 -105.9086 145° Southeast 447 514 39,000  Level Denver Center
10:20PM 43.3464 -105.7989 145° Southeast 446 513 39,000  Level Denver Center
10:21PM 43.2492 -105.7058 145° Southeast 446 513 39,000  Level Denver Center
10:22PM 43.1367 -105.5978 145° Southeast 443 510 39,000  Level Denver Center
10:23PM 43.0397 -105.5053 145° Southeast 444 511 39,000  Level Denver Center
10:24PM 42.9267 -105.3964 145° Southeast 445 512 39,100  Climbing Denver Center
10:25PM 42.8297 -105.3050 145° Southeast 444 511 39,000 -60 Descending Denver Center
10:26PM 42.7122 -105.2108 149° Southeast 441 507 39,000  Level Denver Center
10:27PM 42.6014 -105.1881 171° South 424 488 39,000  Level Denver Center
10:28PM 42.4917 -105.1519 166° South 424 488 39,000  Level Denver Center
10:29PM 42.3628 -105.1111 167° South 428 493 39,000  Level Denver Center
10:30PM 42.2156 -105.0661 167° South 427 491 39,000  Level Denver Center
10:31PM 42.1061 -105.0311 167° South 425 489 39,000  Level Denver Center
10:32PM 41.9789 -104.9931 167° South 422 486 39,100  Climbing Denver Center
10:33PM 41.8681 -104.9594 167° South 425 489 39,000 -60 Descending Denver Center
10:34PM 41.7397 -104.9214 168° South 424 488 39,000  Level Denver Center
10:35PM 41.6308 -104.8869 167° South 422 486 39,000  Level Denver Center
10:36PM 41.5039 -104.8483 167° South 419 482 39,100 900 Climbing Denver Center
10:38PM 41.3986 -104.8156 167° South 409 471 40,900 900 Climbing Denver Center
10:39PM 41.2994 -104.7858 167° South 387 445 41,000  Climbing Denver Center
10:40PM 41.1794 -104.7511 168° South 393 452 41,000  Level Denver Center
10:41PM 41.0739 -104.7217 168° South 403 464 41,000  Level Denver Center
10:42PM 40.9483 -104.6842 167° South 411 473 41,000  Level Denver Center
10:43PM 40.8333 -104.6489 167° South 417 480 41,000  Level Denver Center
10:44PM 40.7183 -104.6164 168° South 418 481 41,000  Level Denver Center
10:45PM 40.6053 -104.5839 168° South 411 473 41,000  Level Denver Center
10:46PM 40.4942 -104.5392 163° South 412 474 41,000  Level Denver Center
10:47PM 40.3969 -104.4431 143° Southeast 427 491 41,000  Level Denver Center
10:48PM 40.2992 -104.3422 142° Southeast 438 504 41,000  Level Denver Center
10:49PM 40.2014 -104.2439 142° Southeast 438 504 41,000  Level Denver Center
10:50PM 40.1053 -104.1469 142° Southeast 432 497 41,000  Level Denver Center
10:51PM 40.0061 -104.0467 142° Southeast 444 511 41,000  Level Denver Center
10:52PM 39.8911 -103.9325 143° Southeast 440 506 41,000  Level Denver Center
10:53PM 39.7908 -103.8325 143° Southeast 445 512 41,000  Level Denver Center
10:54PM 39.7222 -103.7636 142° Southeast 457 526 41,000  Level Denver Center
10:55PM 39.5869 -103.6314 143° Southeast 453 521 41,000  Level Denver Center
10:56PM 39.4817 -103.5272 143° Southeast 467 537 41,000  Level Denver Center
10:57PM 39.3778 -103.4256 143° Southeast 464 534 41,000  Level Denver Center
10:58PM 39.2719 -103.3206 142° Southeast 471 542 41,000  Level Denver Center
10:59PM 39.1675 -103.2194 143° Southeast 466 536 41,000  Level Denver Center
11:00PM 39.0642 -103.1194 143° Southeast 460 529 41,000  Level Denver Center
11:01PM 38.9594 -103.0192 143° Southeast 464 534 41,000  Level Denver Center
11:02PM 38.8572 -102.9200 143° Southeast 459 528 41,000  Level Denver Center
11:03PM 38.7536 -102.8197 143° Southeast 462 532 41,000  Level Denver Center
11:04PM 38.6344 -102.7056 143° Southeast 464 534 41,000  Level Denver Center
11:05PM 38.5361 -102.6114 143° Southeast 462 532 41,000  Level Denver Center
11:06PM 38.4200 -102.5008 143° Southeast 465 535 41,000  Level Denver Center
11:07PM 38.3186 -102.4061 144° Southeast 472 543 41,000  Level Denver Center
11:08PM 38.2175 -102.3111 144° Southeast 471 542 41,000  Level Denver Center
11:10PM 38.0983 -102.2003 144° Southeast 475 547 41,000  Level Denver Center
11:11PM 37.9628 -102.0731 143° Southeast 476 548 41,000  Level Denver Center
11:12PM 37.8614 -101.9789 144° Southeast 474 545 41,000  Level Denver Center
11:13PM 37.7433 -101.8692 144° Southeast 473 544 41,000  Level Denver Center
11:14PM 37.6428 -101.7758 144° Southeast 471 542 41,000  Level Denver Center
11:15PM 37.5422 -101.6831 144° Southeast 471 542 41,000  Level Denver Center
11:16PM 37.4250 -101.5767 144° Southeast 468 539 41,000  Level Denver Center
11:17PM 37.3075 -101.4692 144° Southeast 468 539 41,000  Level Kansas City Center
11:18PM 37.1903 -101.3625 144° Southeast 468 539 41,000  Level Kansas City Center
11:19PM 37.0903 -101.2714 144° Southeast 468 539 41,000  Level Kansas City Center
11:20PM 36.9722 -101.1644 144° Southeast 469 540 41,000  Level Kansas City Center
11:21PM 36.8728 -101.0753 144° Southeast 465 535 41,000  Level Kansas City Center
11:22PM 36.7750 -100.9881 144° Southeast 457 526 41,000  Level Kansas City Center
11:23PM 36.6550 -100.8806 144° Southeast 471 542 41,000  Level Kansas City Center
11:24PM 36.5547 -100.7906 144° Southeast 468 539 41,000  Level Kansas City Center
11:25PM 36.4442 -100.6925 144° Southeast 467 537 41,000  Level Kansas City Center
11:26PM 36.3372 -100.5989 145° Southeast 469 540 41,000  Level Kansas City Center
11:27PM 36.2944 -100.5606 144° Southeast 471 542 41,000  Level Albuquerque Center
11:28PM 36.1881 -100.4653 144° Southeast 472 543 41,000  Level Albuquerque Center
11:29PM 36.0817 -100.3733 145° Southeast 469 540 41,000  Level Albuquerque Center
11:30PM 35.9767 -100.2814 145° Southeast 464 534 41,000  Level Albuquerque Center
11:31PM 35.8731 -100.1900 144° Southeast 460 529 41,000  Level Albuquerque Center
11:32PM 35.7697 -100.1000 145° Southeast 457 526 41,000  Level Albuquerque Center
11:33PM 35.6453 -99.9922 145° Southeast 456 525 41,000  Level Albuquerque Center
11:34PM 35.5417 -99.9039 145° Southeast 456 525 41,000  Level Albuquerque Center
11:35PM 35.4386 -99.8142 145° Southeast 455 524 41,000  Level Albuquerque Center
11:36PM 35.3339 -99.7250 145° Southeast 458 527 41,000  Level Albuquerque Center
11:37PM 35.2294 -99.6356 145° Southeast 458 527 41,000  Level Albuquerque Center
11:38PM 35.1253 -99.5464 145° Southeast 458 527 41,000  Level Albuquerque Center
11:38PM 35.0389 -99.4753 146° Southeast 459 528 41,000  Level Fort Worth Center
11:39PM 34.9358 -99.3864 145° Southeast 459 528 41,000  Level Fort Worth Center
11:40PM 34.8289 -99.2981 146° Southeast 459 528 41,000  Level Fort Worth Center
11:41PM 34.7217 -99.2097 146° Southeast 459 528 41,000  Level Fort Worth Center
11:42PM 34.6372 -99.1372 145° Southeast 459 528 41,000  Level Fort Worth Center
11:43PM 34.5217 -99.0417 146° Southeast 459 528 41,000  Level Fort Worth Center
11:44PM 34.4164 -98.9542 146° Southeast 459 528 41,000  Level Fort Worth Center
11:45PM 34.3108 -98.8642 145° Southeast 459 528 41,000  Level Fort Worth Center
11:46PM 34.2056 -98.7719 144° Southeast 465 535 41,000  Level Fort Worth Center
11:47PM 34.0981 -98.6825 145° Southeast 465 535 41,000  Level Fort Worth Center
11:48PM 33.9947 -98.5858 142° Southeast 471 542 41,000  Level Fort Worth Center
11:49PM 33.8889 -98.4969 145° Southeast 471 542 41,000  Level Fort Worth Center
11:50PM 33.7833 -98.4056 144° Southeast 471 542 41,000  Level Fort Worth Center
11:51PM 33.6756 -98.3169 146° Southeast 471 542 41,000  Level Fort Worth Center
11:52PM 33.5614 -98.2186 144° Southeast 471 542 41,000  Level Fort Worth Center
11:53PM 33.4553 -98.1331 146° Southeast 478 550 41,000  Level Fort Worth Center
11:54PM 33.3494 -98.0425 144° Southeast 468 539 41,000  Level Fort Worth Center
11:55PM 33.2456 -97.9550 145° Southeast 468 539 41,000  Level Fort Worth Center
11:56PM 33.1394 -97.8675 145° Southeast 468 539 41,000  Level Fort Worth Center
11:57PM 33.0333 -97.7778 145° Southeast 468 539 41,000  Level Fort Worth Center
11:58PM 32.9250 -97.6906 146° Southeast 468 539 41,000  Level Fort Worth Center
11:59PM 32.8186 -97.6014 145° Southeast 468 539 41,000  Level Fort Worth Center
12:00AM 32.7103 -97.5147 146° Southeast 468 539 41,000  Level Fort Worth Center
12:01AM 32.6058 -97.4258 144° Southeast 468 539 41,000  Level Fort Worth Center
12:02AM 32.4972 -97.3369 145° Southeast 468 539 41,000  Level Fort Worth Center
12:03AM 32.3928 -97.2461 144° Southeast 468 539 41,000  Level Fort Worth Center
12:04AM 32.2842 -97.1603 146° Southeast 473 544 41,000  Level Fort Worth Center
12:05AM 32.1775 -97.0697 144° Southeast 472 543 41,000 -360 Level Fort Worth Center
12:06AM 32.0664 -96.9819 146° Southeast 472 543 40,300 -780 Descending Fort Worth Center
12:07AM 31.9703 -96.9064 146° Southeast 478 550 39,500 -960 Descending Fort Worth Center
12:09AM 31.8092 -96.7742 145° Southeast 468 539 38,000 -1,020 Descending Houston Center
12:10AM 31.7025 -96.6875 145° Southeast 463 533 36,900 -1,080 Descending Houston Center
12:11AM 31.5967 -96.6025 146° Southeast 455 524 35,900 -1,020 Descending Houston Center
12:12AM 31.4894 -96.5175 146° Southeast 455 524 34,900 -1,020 Descending Houston Center
12:13AM 31.3842 -96.4331 146° Southeast 453 521 33,900 -1,080 Descending Houston Center
12:14AM 31.2806 -96.3503 146° Southeast 444 511 32,800 -1,920 Descending Houston Center
12:15AM 31.1728 -96.2886 154° Southeast 422 486 30,100 -2,820 Descending Houston Center
12:16AM 31.0658 -96.2317 155° Southeast 417 480 27,200 -2,880 Descending Houston Center
12:17AM 30.9553 -96.1753 156° South 426 490 24,300 -2,940 Descending Houston Center
12:18AM 30.8575 -96.1247 156° South 443 510 21,800 -3,060 Descending Houston Center
12:19AM 30.7500 -96.0689 156° South 448 516 19,000 -2,940 Descending Houston Center
12:19AM 30.7269 -96.0567 156° South 442 509 18,400 -3,000 Descending Houston Center
12:20AM 30.6494 -96.0197 158° South 391 450 16,000 -2,880 Descending Houston Center
12:20AM 30.6297 -96.0083 154° Southeast 404 465 15,500 -3,000 Descending Houston Center
12:21AM 30.5458 -95.9636 155° Southeast 372 428 13,000 -2,940 Descending Houston Center
12:21AM 30.5342 -95.9586 160° South 380 437 12,600 -2,640 Descending Houston Center
12:22AM 30.4472 -95.9144 156° South 349 402 10,100 -1,440 Descending Houston Center
12:23AM 30.3592 -95.8692 156° South 339 390 10,000 -480 Descending Houston Center
12:24AM 30.2933 -95.8356 156° South 266 306 9,200 -1,260 Descending Houston Center
12:25AM 30.2208 -95.7981 156° South 261 300 7,500 -1,500 Descending Houston Center
12:26AM 30.1572 -95.7669 157° South 244 281 6,100 -1,560 Descending Houston Center
12:27AM 30.0981 -95.7375 157° South 229 264 4,400 -1,080 Descending Houston Center
12:28AM 30.0386 -95.7058 155° Southeast 228 262 4,000 -240 Descending Houston Center
12:29AM 29.9950 -95.6653 141° Southeast 197 227 4,000  Level Houston Center
12:30AM 29.9933 -95.6003 92° East 203 234 4,000 -360 Level Houston Center
12:31AM 29.9922 -95.5400 91° East 172 198 3,300 -900 Descending Houston Center
12:32AM 29.9917 -95.4872 91° East 153 176 2,300 -900 Descending Houston Center
12:33AM 29.9936 -95.4411 87° East 146 168 1,600 -720 Descending Houston Center
12:34AM 29.9939 -95.4017 90° East 147 169 900 -600 Descending Houston Center
12:35AM 29.9942 -95.3564 90° East 139 160 400 -540 Descending Houston Center
12:37AM 29.9833 -95.3333 138° Southeast  Level FlightAware Approximate